Fs Ipanema — A8PT6 — position and weather

sailwx.info

Track history (hours):
 
Tides and Currents Weather Stations Pressure Air Temp Water Temp Dewpoint Dewpoint Depression Visibility Wind Speed Wind Dir Waves Ship Positions

Fs Ipanema

Last reported at 2018-Jun-10 08:11 UTC. Time now 2018-Jun-20 15:10 UTC.
Position N 25°28' W 079°37'.
Warning: this ship's position is 10 days out of date.

Length 180 m; draft 8.2 m.

Type: Cargo ship. MMSI: 636018056.

Date/timePositionNaut miles runAvg speedWind from/ knotsBaromVisibWave heightAir tempDewpointWater temp
2018-Jun-10 08:11N 25°28' W 079°37'316.2
2018-Jun-10 07:58N 25°31' W 079°38'715.9
2018-Jun-10 07:30N 25°38' W 079°39'815.5
2018-Jun-10 07:00N 25°46' W 079°41'714.2
2018-Jun-10 06:30N 25°52' W 079°45'612.6
2018-Jun-10 06:00N 25°56' W 079°50'4 8.8
2018-Jun-10 05:30N 25°59' W 079°54'4 8.6
2018-Jun-10 05:01N 26°02' W 079°57'5 9.5
2018-Jun-10 04:31N 26°05' W 080°02'5 9.0
2018-Jun-10 04:01N 26°06' W 080°07'1 2.3
2018-Jun-10 03:25N 26°04' W 080°07'0 0.0
2018-Jun-10 02:55N 26°04' W 080°07'0 0.0
2018-Jun-10 02:25N 26°04' W 080°07'0 0.0
2018-Jun-10 01:55N 26°04' W 080°07'0 0.0
2018-Jun-10 01:25N 26°04' W 080°07'0 0.0
2018-Jun-10 00:55N 26°04' W 080°07'0 0.0
2018-Jun-10 00:25N 26°04' W 080°07'0 0.0
2018-Jun-09 23:58N 26°04' W 080°07'0 0.0
2018-Jun-09 23:28N 26°04' W 080°07'0 0.0
2018-Jun-09 22:58N 26°04' W 080°07'0 0.0
2018-Jun-09 22:27N 26°04' W 080°07'0 0.0
2018-Jun-09 22:01N 26°04' W 080°07'0 0.0
2018-Jun-09 21:31N 26°04' W 080°07'0 0.0
2018-Jun-09 20:57N 26°04' W 080°07'0 0.0
2018-Jun-09 20:30N 26°04' W 080°07'0 0.0
2018-Jun-09 20:00N 26°04' W 080°07'0 0.0
2018-Jun-09 19:31N 26°04' W 080°07'0 0.0
2018-Jun-09 19:00N 26°04' W 080°07'0 0.0
2018-Jun-09 18:30N 26°04' W 080°07'0 0.0
2018-Jun-09 18:00N 26°04' W 080°07'0 0.3
2018-Jun-09 17:30N 26°04' W 080°07'0 0.4
2018-Jun-09 17:01N 26°04' W 080°07'0 0.0
2018-Jun-09 16:30N 26°04' W 080°07'0 0.0
2018-Jun-09 16:00N 26°04' W 080°07'0 0.0
2018-Jun-09 15:00N 26°04' W 080°07'0 0.0
2018-Jun-09 14:30N 26°04' W 080°07'0 0.0
2018-Jun-09 13:54N 26°04' W 080°07'0 0.0
2018-Jun-09 13:30N 26°04' W 080°07'0 0.0
2018-Jun-09 12:54N 26°04' W 080°07'0 0.0
2018-Jun-09 12:24N 26°04' W 080°07'0 0.0
2018-Jun-09 12:00N 26°04' W 080°07'0 0.0
2018-Jun-09 11:24N 26°04' W 080°07'0 0.0
2018-Jun-09 11:00N 26°04' W 080°07'0 0.0
2018-Jun-09 10:27N 26°04' W 080°07'0 0.0
2018-Jun-09 09:57N 26°04' W 080°07'0 0.0
2018-Jun-09 09:27N 26°04' W 080°07'0 0.0
2018-Jun-09 08:42N 26°04' W 080°07'0 0.0
2018-Jun-09 08:12N 26°04' W 080°07'0 0.0
2018-Jun-09 07:54N 26°04' W 080°07'0 0.0
2018-Jun-09 07:30N 26°04' W 080°07'0 0.0
2018-Jun-09 07:00N 26°04' W 080°07'0 0.0
2018-Jun-09 06:30N 26°04' W 080°07'0 0.0
2018-Jun-09 06:00N 26°04' W 080°07'0 0.0
2018-Jun-09 05:30N 26°04' W 080°07'0 1.0
2018-Jun-09 05:00N 26°05' W 080°07'3 6.0
2018-Jun-09 04:31N 26°06' W 080°04'2 3.2
2018-Jun-09 04:00N 26°06' W 080°02'4 7.9
2018-Jun-09 03:30N 26°10' W 080°01'0 0.8
2018-Jun-09 03:00N 26°11' W 080°02'2 4.0
2018-Jun-09 02:30N 26°09' W 080°02'2 3.9
2018-Jun-09 02:00N 26°07' W 080°01'2 3.9
2018-Jun-09 01:30N 26°05' W 080°01'2 3.8
2018-Jun-09 01:00N 26°03' W 080°01'2 3.7
2018-Jun-09 00:30N 26°01' W 080°01'2 3.9
2018-Jun-09 00:00N 25°59' W 080°01'2 4.1
2018-Jun-08 23:30N 25°57' W 080°00'2 3.9
2018-Jun-08 23:00N 25°55' W 079°60'2 3.8
2018-Jun-08 22:30N 25°53' W 079°59'2 3.9
2018-Jun-08 22:00N 25°51' W 079°58'2 3.8
2018-Jun-08 21:30N 25°50' W 079°59'3 6.5
2018-Jun-08 21:00N 25°53' W 079°60'712.8
2018-Jun-08 20:29N 25°59' W 080°00'613.4
2018-Jun-08 20:00N 26°06' W 080°00'612.9
2018-Jun-08 19:30N 26°12' W 080°02'1 1.5
2018-Jun-08 19:00N 26°11' W 080°02'1 2.4
2018-Jun-08 18:31N 26°10' W 080°02'2 3.5
2018-Jun-08 18:00N 26°09' W 080°01'2 3.8
2018-Jun-08 17:30N 26°07' W 080°01'2 4.0
2018-Jun-08 17:00N 26°05' W 080°01'2 4.0
2018-Jun-08 16:30N 26°03' W 080°01'2 3.2
2018-Jun-08 15:58N 26°01' W 080°01'2 5.2
2018-Jun-08 15:30N 26°03' W 079°60'612.0
2018-Jun-08 15:00N 26°09' W 080°00'5 9.9
2018-Jun-08 14:30N 26°14' W 080°00'2 3.0
2018-Jun-08 14:00N 26°13' W 080°00'2 3.2
2018-Jun-08 13:30N 26°11' W 080°00'2 3.1
2018-Jun-08 13:00N 26°09' W 080°00'1 3.0
2018-Jun-08 12:30N 26°08' W 080°01'1 2.8
2018-Jun-08 12:00N 26°06' W 080°01'1 2.7
2018-Jun-08 11:30N 26°05' W 080°01'1 2.8
2018-Jun-08 11:01N 26°04' W 080°01'1 2.9
2018-Jun-08 10:31N 26°02' W 080°01'1 2.8
2018-Jun-08 10:00N 26°01' W 080°01'2 4.0
2018-Jun-08 09:31N 25°59' W 080°00'612.9
2018-Jun-08 09:01N 25°57' W 079°53'815.2
2018-Jun-08 08:31N 25°55' W 079°45'713.5
2018-Jun-08 08:00N 25°50' W 079°40'815.5
2018-Jun-08 07:30N 25°42' W 079°40'815.2
2018-Jun-08 07:00N 25°35' W 079°40'714.9
2018-Jun-08 06:30N 25°27' W 079°39'  
Track history (hours):
 
Tides and Currents Weather Stations Pressure Air Temp Water Temp Dewpoint Dewpoint Depression Visibility Wind Speed Wind Dir Waves Ship Positions

Fs Ipanema

Last reported at 2018-Jun-10 08:11 UTC. Time now 2018-Jun-20 15:10 UTC.
Position N 25°28' W 079°37'.
Warning: this ship's position is 10 days out of date.

Length 180 m; draft 8.2 m.

Type: Cargo ship. MMSI: 636018056.

Date/timePositionNaut miles runAvg speedWind from/ knotsBaromVisibWave heightAir tempDewpointWater temp
2018-Jun-10 08:11N 25°28' W 079°37'316.2
2018-Jun-10 07:58N 25°31' W 079°38'715.9
2018-Jun-10 07:30N 25°38' W 079°39'815.5
2018-Jun-10 07:00N 25°46' W 079°41'714.2
2018-Jun-10 06:30N 25°52' W 079°45'612.6
2018-Jun-10 06:00N 25°56' W 079°50'4 8.8
2018-Jun-10 05:30N 25°59' W 079°54'4 8.6
2018-Jun-10 05:01N 26°02' W 079°57'5 9.5
2018-Jun-10 04:31N 26°05' W 080°02'5 9.0
2018-Jun-10 04:01N 26°06' W 080°07'1 2.3
2018-Jun-10 03:25N 26°04' W 080°07'0 0.0
2018-Jun-10 02:55N 26°04' W 080°07'0 0.0
2018-Jun-10 02:25N 26°04' W 080°07'0 0.0
2018-Jun-10 01:55N 26°04' W 080°07'0 0.0
2018-Jun-10 01:25N 26°04' W 080°07'0 0.0
2018-Jun-10 00:55N 26°04' W 080°07'0 0.0
2018-Jun-10 00:25N 26°04' W 080°07'0 0.0
2018-Jun-09 23:58N 26°04' W 080°07'0 0.0
2018-Jun-09 23:28N 26°04' W 080°07'0 0.0
2018-Jun-09 22:58N 26°04' W 080°07'0 0.0
2018-Jun-09 22:27N 26°04' W 080°07'0 0.0
2018-Jun-09 22:01N 26°04' W 080°07'0 0.0
2018-Jun-09 21:31N 26°04' W 080°07'0 0.0
2018-Jun-09 20:57N 26°04' W 080°07'0 0.0
2018-Jun-09 20:30N 26°04' W 080°07'0 0.0
2018-Jun-09 20:00N 26°04' W 080°07'0 0.0
2018-Jun-09 19:31N 26°04' W 080°07'0 0.0
2018-Jun-09 19:00N 26°04' W 080°07'0 0.0
2018-Jun-09 18:30N 26°04' W 080°07'0 0.0
2018-Jun-09 18:00N 26°04' W 080°07'0 0.3
2018-Jun-09 17:30N 26°04' W 080°07'0 0.4
2018-Jun-09 17:01N 26°04' W 080°07'0 0.0
2018-Jun-09 16:30N 26°04' W 080°07'0 0.0
2018-Jun-09 16:00N 26°04' W 080°07'0 0.0
2018-Jun-09 15:00N 26°04' W 080°07'0 0.0
2018-Jun-09 14:30N 26°04' W 080°07'0 0.0
2018-Jun-09 13:54N 26°04' W 080°07'0 0.0
2018-Jun-09 13:30N 26°04' W 080°07'0 0.0
2018-Jun-09 12:54N 26°04' W 080°07'0 0.0
2018-Jun-09 12:24N 26°04' W 080°07'0 0.0
2018-Jun-09 12:00N 26°04' W 080°07'0 0.0
2018-Jun-09 11:24N 26°04' W 080°07'0 0.0
2018-Jun-09 11:00N 26°04' W 080°07'0 0.0
2018-Jun-09 10:27N 26°04' W 080°07'0 0.0
2018-Jun-09 09:57N 26°04' W 080°07'0 0.0
2018-Jun-09 09:27N 26°04' W 080°07'0 0.0
2018-Jun-09 08:42N 26°04' W 080°07'0 0.0
2018-Jun-09 08:12N 26°04' W 080°07'0 0.0
2018-Jun-09 07:54N 26°04' W 080°07'0 0.0
2018-Jun-09 07:30N 26°04' W 080°07'0 0.0
2018-Jun-09 07:00N 26°04' W 080°07'0 0.0
2018-Jun-09 06:30N 26°04' W 080°07'0 0.0
2018-Jun-09 06:00N 26°04' W 080°07'0 0.0
2018-Jun-09 05:30N 26°04' W 080°07'0 1.0
2018-Jun-09 05:00N 26°05' W 080°07'3 6.0
2018-Jun-09 04:31N 26°06' W 080°04'2 3.2
2018-Jun-09 04:00N 26°06' W 080°02'4 7.9
2018-Jun-09 03:30N 26°10' W 080°01'0 0.8
2018-Jun-09 03:00N 26°11' W 080°02'2 4.0
2018-Jun-09 02:30N 26°09' W 080°02'2 3.9
2018-Jun-09 02:00N 26°07' W 080°01'2 3.9
2018-Jun-09 01:30N 26°05' W 080°01'2 3.8
2018-Jun-09 01:00N 26°03' W 080°01'2 3.7
2018-Jun-09 00:30N 26°01' W 080°01'2 3.9
2018-Jun-09 00:00N 25°59' W 080°01'2 4.1
2018-Jun-08 23:30N 25°57' W 080°00'2 3.9
2018-Jun-08 23:00N 25°55' W 079°60'2 3.8
2018-Jun-08 22:30N 25°53' W 079°59'2 3.9
2018-Jun-08 22:00N 25°51' W 079°58'2 3.8
2018-Jun-08 21:30N 25°50' W 079°59'3 6.5
2018-Jun-08 21:00N 25°53' W 079°60'712.8
2018-Jun-08 20:29N 25°59' W 080°00'613.4
2018-Jun-08 20:00N 26°06' W 080°00'612.9
2018-Jun-08 19:30N 26°12' W 080°02'1 1.5
2018-Jun-08 19:00N 26°11' W 080°02'1 2.4
2018-Jun-08 18:31N 26°10' W 080°02'2 3.5
2018-Jun-08 18:00N 26°09' W 080°01'2 3.8
2018-Jun-08 17:30N 26°07' W 080°01'2 4.0
2018-Jun-08 17:00N 26°05' W 080°01'2 4.0
2018-Jun-08 16:30N 26°03' W 080°01'2 3.2
2018-Jun-08 15:58N 26°01' W 080°01'2 5.2
2018-Jun-08 15:30N 26°03' W 079°60'612.0
2018-Jun-08 15:00N 26°09' W 080°00'5 9.9
2018-Jun-08 14:30N 26°14' W 080°00'2 3.0
2018-Jun-08 14:00N 26°13' W 080°00'2 3.2
2018-Jun-08 13:30N 26°11' W 080°00'2 3.1
2018-Jun-08 13:00N 26°09' W 080°00'1 3.0
2018-Jun-08 12:30N 26°08' W 080°01'1 2.8
2018-Jun-08 12:00N 26°06' W 080°01'1 2.7
2018-Jun-08 11:30N 26°05' W 080°01'1 2.8
2018-Jun-08 11:01N 26°04' W 080°01'1 2.9
2018-Jun-08 10:31N 26°02' W 080°01'1 2.8
2018-Jun-08 10:00N 26°01' W 080°01'2 4.0
2018-Jun-08 09:31N 25°59' W 080°00'612.9
2018-Jun-08 09:01N 25°57' W 079°53'815.2
2018-Jun-08 08:31N 25°55' W 079°45'713.5
2018-Jun-08 08:00N 25°50' W 079°40'815.5
2018-Jun-08 07:30N 25°42' W 079°40'815.2
2018-Jun-08 07:00N 25°35' W 079°40'714.9
2018-Jun-08 06:30N 25°27' W 079°39'  

Dump ship's entire track history